createdAt,value
2019-04-05T00:02:01.185Z,62.85
2019-04-05T00:04:31.540Z,64.23
2019-04-05T00:07:02.283Z,64.88
2019-04-05T00:09:32.823Z,65.69
2019-04-05T00:12:03.106Z,65.50
2019-04-05T00:14:33.922Z,66.25
2019-04-05T00:17:06.022Z,66.50
2019-04-05T00:19:37.328Z,65.67
2019-04-05T00:22:07.743Z,64.33
2019-04-05T00:24:38.398Z,65.26
2019-04-05T00:27:08.736Z,65.10
2019-04-05T00:29:40.158Z,64.62
2019-04-05T00:32:10.615Z,64.58
2019-04-05T00:34:41.442Z,64.10
2019-04-05T00:37:12.164Z,64.12
2019-04-05T00:39:42.900Z,64.09
2019-04-05T00:42:13.604Z,64.96
2019-04-05T00:44:44.300Z,65.16
2019-04-05T00:47:14.582Z,64.82
2019-04-05T00:49:45.094Z,64.65
2019-04-05T00:52:15.838Z,64.91
2019-04-05T00:54:46.223Z,65.04
2019-04-05T00:57:16.630Z,64.17
2019-04-05T00:59:47.558Z,64.33
2019-04-05T01:02:18.032Z,63.88
2019-04-05T01:04:48.620Z,63.85
2019-04-05T01:07:18.913Z,63.63
2019-04-05T01:09:49.512Z,63.21
2019-04-05T01:12:22.185Z,62.58
2019-04-05T01:14:53.609Z,62.89
2019-04-05T01:17:25.227Z,62.61
2019-04-05T01:19:59.928Z,62.64
2019-04-05T01:22:32.078Z,61.97
2019-04-05T01:25:03.107Z,61.69
2019-04-05T01:27:35.172Z,61.14
2019-04-05T01:30:06.956Z,61.42
2019-04-05T01:32:37.261Z,61.33
2019-04-05T01:35:08.341Z,61.16
2019-04-05T01:37:39.008Z,61.11
2019-04-05T01:40:11.381Z,60.97
2019-04-05T01:42:42.635Z,60.85
2019-04-05T01:45:13.165Z,60.98
2019-04-05T01:47:43.869Z,60.16
2019-04-05T01:50:14.628Z,60.19
2019-04-05T01:52:45.403Z,61.36
2019-04-05T01:55:16.565Z,63.26
2019-04-05T01:57:47.226Z,63.59
2019-04-05T02:00:18.063Z,63.27
2019-04-05T02:02:48.791Z,63.71
2019-04-05T02:05:19.922Z,63.79
2019-04-05T02:07:50.209Z,65.15
2019-04-05T02:10:21.102Z,65.80
2019-04-05T02:12:51.697Z,64.88
2019-04-05T02:15:27.582Z,67.40
2019-04-05T02:17:58.897Z,67.78
2019-04-05T02:20:29.366Z,69.41
2019-04-05T02:23:00.145Z,70.37
2019-04-05T02:25:30.859Z,69.45
2019-04-05T02:28:01.141Z,69.61
2019-04-05T02:30:31.799Z,68.98
2019-04-05T02:33:02.541Z,68.51
2019-04-05T02:35:32.921Z,68.72
2019-04-05T02:38:03.240Z,69.72
2019-04-05T02:40:35.784Z,69.93
2019-04-05T02:43:07.639Z,69.06
2019-04-05T02:45:40.187Z,68.49
2019-04-05T02:48:13.679Z,68.99
2019-04-05T02:50:47.042Z,70.54
2019-04-05T02:53:20.121Z,70.79
2019-04-05T02:55:51.306Z,71.20
2019-04-05T02:58:22.399Z,71.26
2019-04-05T03:00:53.851Z,70.78
2019-04-05T03:03:24.804Z,70.24
2019-04-05T03:05:56.074Z,69.05
2019-04-05T03:08:27.484Z,70.94
2019-04-05T03:11:10.819Z,71.49
2019-04-05T03:13:52.289Z,71.27
2019-04-05T03:16:39.468Z,69.88
2019-04-05T03:19:05.418Z,70.37
2019-04-05T03:21:39.037Z,71.55
2019-04-05T03:24:12.942Z,71.99
2019-04-05T03:26:46.930Z,72.72
2019-04-05T03:29:17.738Z,72.75
2019-04-05T03:31:48.518Z,72.11
2019-04-05T03:34:19.190Z,71.28
2019-04-05T03:36:51.817Z,71.30
2019-04-05T03:39:23.788Z,71.56
2019-04-05T03:41:55.065Z,72.12
2019-04-05T03:44:27.072Z,71.73
2019-04-05T03:46:58.083Z,72.83
2019-04-05T03:49:29.972Z,73.32
2019-04-05T03:52:02.119Z,73.25
2019-04-05T03:54:33.068Z,72.68
2019-04-05T03:57:03.852Z,72.62
2019-04-05T03:59:34.486Z,73.79
2019-04-05T04:02:05.106Z,73.67
2019-04-05T04:04:35.742Z,72.88
2019-04-05T04:07:06.990Z,71.77
2019-04-05T04:09:37.370Z,72.04
2019-04-05T04:12:07.892Z,72.60
2019-04-05T04:14:38.910Z,72.72
2019-04-05T04:17:12.603Z,72.35
2019-04-05T04:19:41.558Z,72.55
2019-04-05T04:22:31.378Z,72.56
2019-04-05T04:25:02.055Z,71.64
2019-04-05T04:27:32.485Z,71.30
2019-04-05T04:30:03.094Z,72.05
2019-04-05T04:32:34.651Z,72.48
2019-04-05T04:35:05.188Z,71.98
2019-04-05T04:37:36.475Z,72.00
2019-04-05T04:40:07.331Z,71.78
2019-04-05T04:42:39.057Z,71.66
2019-04-05T04:45:12.349Z,71.84
2019-04-05T04:47:42.176Z,72.54
2019-04-05T04:50:13.085Z,72.05
2019-04-05T04:52:45.647Z,70.87
2019-04-05T04:55:16.148Z,69.82
2019-04-05T04:57:47.883Z,69.36
2019-04-05T05:00:19.034Z,69.13
2019-04-05T05:02:49.678Z,69.30
2019-04-05T05:05:21.118Z,69.02
2019-04-05T05:07:52.272Z,69.90
2019-04-05T05:10:22.648Z,69.78
2019-04-05T05:12:53.224Z,69.69
2019-04-05T05:15:27.110Z,69.51
2019-04-05T05:17:58.722Z,68.23
2019-04-05T05:20:29.212Z,68.40
2019-04-05T05:23:00.149Z,69.43
2019-04-05T05:25:30.997Z,67.81
2019-04-05T05:28:02.908Z,67.14
2019-04-05T05:30:33.593Z,66.63
2019-04-05T05:33:04.665Z,66.37
2019-04-05T05:35:35.575Z,66.18
2019-04-05T05:38:05.992Z,66.42
2019-04-05T05:40:36.403Z,66.03
2019-04-05T05:43:07.276Z,65.44
2019-04-05T05:45:37.657Z,64.89
2019-04-05T05:48:08.484Z,64.58
2019-04-05T05:50:39.266Z,63.47
2019-04-05T05:53:09.856Z,63.63
2019-04-05T05:55:40.644Z,63.38
2019-04-05T05:58:10.968Z,62.39
2019-04-05T06:00:41.387Z,62.20
2019-04-05T06:03:13.183Z,61.82
2019-04-05T06:05:43.488Z,60.63
2019-04-05T06:08:13.805Z,61.23
2019-04-05T06:10:44.539Z,60.00
2019-04-05T06:13:15.056Z,59.61
2019-04-05T06:15:45.347Z,59.58
2019-04-05T06:18:16.073Z,59.18
2019-04-05T06:20:46.954Z,58.81
2019-04-05T06:23:17.271Z,58.25
2019-04-05T06:25:47.921Z,57.45
2019-04-05T06:28:18.253Z,57.52
2019-04-05T06:30:49.117Z,57.57
2019-04-05T06:33:30.986Z,56.66
2019-04-05T06:35:51.876Z,56.45
2019-04-05T06:38:22.686Z,55.12
2019-04-05T06:40:53.065Z,55.25
2019-04-05T06:43:23.487Z,55.44
2019-04-05T06:45:54.318Z,54.55
2019-04-05T06:48:24.900Z,54.40
2019-04-05T06:50:55.165Z,54.38
2019-04-05T06:53:25.737Z,54.36
2019-04-05T06:55:59.497Z,53.89
2019-04-05T06:58:29.573Z,53.95
2019-04-05T07:01:00.349Z,53.99
2019-04-05T07:03:30.844Z,53.20
2019-04-05T07:06:01.537Z,53.52
2019-04-05T07:08:32.251Z,53.34
2019-04-05T07:11:02.985Z,52.79
2019-04-05T07:13:33.566Z,52.05
2019-04-05T07:16:04.353Z,51.56
2019-04-05T07:18:36.310Z,51.44
2019-04-05T07:21:06.915Z,52.44
2019-04-05T07:23:37.529Z,51.50
2019-04-05T07:26:07.905Z,51.16
2019-04-05T07:28:38.239Z,51.03
2019-04-05T07:31:08.887Z,50.95
2019-04-05T07:33:39.449Z,49.89
2019-04-05T07:36:10.042Z,48.97
2019-04-05T07:38:40.377Z,48.78
2019-04-05T07:41:10.670Z,48.38
2019-04-05T07:43:41.242Z,47.70
2019-04-05T07:46:11.699Z,47.34
2019-04-05T07:48:44.943Z,45.85
2019-04-05T07:51:14.437Z,45.59
2019-04-05T07:53:44.950Z,45.55
2019-04-05T07:56:15.227Z,45.13
2019-04-05T07:58:46.384Z,44.15
2019-04-05T08:01:17.155Z,43.73
2019-04-05T08:03:47.710Z,43.08
2019-04-05T08:06:18.087Z,42.90
2019-04-05T08:08:56.997Z,42.57
2019-04-05T08:11:30.526Z,42.35
2019-04-05T08:14:02.668Z,41.89
2019-04-05T08:16:33.011Z,41.61
2019-04-05T08:19:03.847Z,40.78
2019-04-05T08:21:34.582Z,40.57
2019-04-05T08:24:05.031Z,40.81
2019-04-05T08:26:36.638Z,40.34
2019-04-05T08:29:07.633Z,41.02
2019-04-05T08:31:38.030Z,40.58
2019-04-05T08:34:08.648Z,40.47
2019-04-05T08:36:39.449Z,40.32
2019-04-05T08:39:11.131Z,39.65
2019-04-05T08:41:41.423Z,38.77
2019-04-05T08:44:12.417Z,39.05
2019-04-05T08:46:42.732Z,38.43
2019-04-05T08:49:13.207Z,38.27
2019-04-05T08:51:43.852Z,38.85
2019-04-05T08:54:14.365Z,39.13
2019-04-05T08:56:44.657Z,38.17
2019-04-05T08:59:15.543Z,37.99
2019-04-05T09:01:46.157Z,38.04
2019-04-05T09:04:16.589Z,38.06
2019-04-05T09:06:47.048Z,37.79
2019-04-05T09:09:17.397Z,37.40
2019-04-05T09:11:48.098Z,37.73
2019-04-05T09:14:20.832Z,37.18
2019-04-05T09:16:50.692Z,37.17
2019-04-05T09:19:23.824Z,37.55
2019-04-05T09:21:53.685Z,36.72
2019-04-05T09:24:24.012Z,37.86
2019-04-05T09:26:54.877Z,37.35
2019-04-05T09:29:25.659Z,36.59
2019-04-05T09:31:55.960Z,36.09
2019-04-05T09:34:26.507Z,35.93
2019-04-05T09:36:56.879Z,36.44
2019-04-05T09:39:27.228Z,37.60
2019-04-05T09:41:57.823Z,37.77
2019-04-05T09:44:28.331Z,36.52
2019-04-05T09:46:58.905Z,36.20
2019-04-05T09:49:36.752Z,35.72
2019-04-05T09:52:01.914Z,36.29
2019-04-05T09:54:32.361Z,35.92
2019-04-05T09:57:02.972Z,37.85
2019-04-05T09:59:33.443Z,36.13
2019-04-05T10:02:03.754Z,36.10
2019-04-05T10:04:34.317Z,35.99
2019-04-05T10:07:05.691Z,36.40
2019-04-05T10:09:36.048Z,35.98
2019-04-05T10:12:06.504Z,36.42
2019-04-05T10:14:37.174Z,36.02
2019-04-05T10:17:07.798Z,35.79
2019-04-05T10:19:49.217Z,35.79
2019-04-05T10:22:10.498Z,35.72
2019-04-05T10:24:41.182Z,35.45
2019-04-05T10:27:11.499Z,35.00
2019-04-05T10:29:41.841Z,34.71
2019-04-05T10:32:12.542Z,35.01
2019-04-05T10:34:42.987Z,34.90
2019-04-05T10:37:13.312Z,34.69
2019-04-05T10:39:44.106Z,34.44
2019-04-05T10:42:31.172Z,34.32
2019-04-05T10:45:01.842Z,34.60
2019-04-05T10:47:32.187Z,33.99
2019-04-05T10:50:03.722Z,34.03
2019-04-05T10:52:34.622Z,34.29
2019-04-05T10:55:05.708Z,33.63
2019-04-05T10:57:36.240Z,33.64
2019-04-05T11:00:10.060Z,33.73
2019-04-05T11:02:40.541Z,32.98
2019-04-05T11:05:11.139Z,32.36
2019-04-05T11:07:41.779Z,32.35
2019-04-05T11:10:13.620Z,32.09
2019-04-05T11:12:44.018Z,31.61
2019-04-05T11:15:15.258Z,30.34
2019-04-05T11:17:45.790Z,30.34
2019-04-05T11:20:23.825Z,31.19
2019-04-05T11:22:50.088Z,30.79
2019-04-05T11:25:21.281Z,31.01
2019-04-05T11:27:53.257Z,31.04
2019-04-05T11:30:41.124Z,31.33
2019-04-05T11:33:11.618Z,31.00
2019-04-05T11:35:42.156Z,30.83
2019-04-05T11:38:14.610Z,30.52
2019-04-05T11:40:46.629Z,29.94
2019-04-05T11:43:18.339Z,30.65
2019-04-05T11:45:50.822Z,30.87
2019-04-05T11:48:21.673Z,31.27
2019-04-05T11:50:52.430Z,31.37
2019-04-05T11:53:22.941Z,30.83
2019-04-05T11:55:53.527Z,31.41
2019-04-05T11:58:24.321Z,31.41
2019-04-05T12:01:23.622Z,31.52
2019-04-05T12:03:54.405Z,31.12
2019-04-05T12:06:25.719Z,30.94
2019-04-05T12:08:56.051Z,31.37
2019-04-05T12:11:26.339Z,31.07
2019-04-05T12:13:57.047Z,30.59
2019-04-05T12:16:27.624Z,30.70
2019-04-05T12:18:59.020Z,30.10
2019-04-05T12:21:29.846Z,30.17
2019-04-05T12:24:00.479Z,30.25
2019-04-05T12:26:34.485Z,30.09
2019-04-05T12:29:04.996Z,30.27
2019-04-05T12:31:35.267Z,31.01
2019-04-05T12:34:05.825Z,30.76
2019-04-05T12:36:36.563Z,30.26
2019-04-05T12:39:08.639Z,30.20
2019-04-05T12:41:40.864Z,31.49
2019-04-05T12:44:15.257Z,31.28
2019-04-05T12:46:45.839Z,32.75
2019-04-05T12:49:15.958Z,31.40
2019-04-05T12:51:46.751Z,31.40
2019-04-05T12:54:17.140Z,31.43
2019-04-05T12:56:47.678Z,31.08
2019-04-05T12:59:18.362Z,30.01
2019-04-05T13:01:48.657Z,30.09
2019-04-05T13:04:20.672Z,29.83
2019-04-05T13:06:53.010Z,29.84
2019-04-05T13:09:24.667Z,29.74
2019-04-05T13:11:57.403Z,30.08
2019-04-05T13:14:27.722Z,29.46
2019-04-05T13:17:01.701Z,28.73
2019-04-05T13:19:30.625Z,29.03
2019-04-05T13:22:02.870Z,28.29
2019-04-05T13:24:34.464Z,28.76
2019-04-05T13:27:05.055Z,28.46
2019-04-05T13:29:35.739Z,28.52
2019-04-05T13:32:06.006Z,28.50
2019-04-05T13:34:36.906Z,28.44
2019-04-05T13:37:19.597Z,28.23
2019-04-05T13:39:40.691Z,28.72
2019-04-05T13:42:11.361Z,28.73
2019-04-05T13:44:41.938Z,29.51
2019-04-05T13:47:12.278Z,29.15
2019-04-05T13:49:43.344Z,28.75
2019-04-05T13:52:13.896Z,29.06
2019-04-05T13:54:44.535Z,29.48
2019-04-05T13:57:14.871Z,29.03
2019-04-05T13:59:45.337Z,29.15
2019-04-05T14:02:15.714Z,29.04
2019-04-05T14:04:46.253Z,29.49
2019-04-05T14:07:16.556Z,28.91
2019-04-05T14:09:47.312Z,29.11
2019-04-05T14:12:18.070Z,29.45
2019-04-05T14:14:51.306Z,29.68
2019-04-05T14:17:20.528Z,28.92
2019-04-05T14:19:51.200Z,30.13
2019-04-05T14:22:22.484Z,29.49
2019-04-05T14:24:56.667Z,29.76
2019-04-05T14:27:26.712Z,29.80
2019-04-05T14:29:57.266Z,30.32
2019-04-05T14:32:27.823Z,30.45
2019-04-05T14:34:58.157Z,30.49
2019-04-05T14:37:28.550Z,30.48
2019-04-05T14:40:00.489Z,30.21
2019-04-05T14:42:30.851Z,30.06
2019-04-05T14:45:01.436Z,30.45
2019-04-05T14:47:32.005Z,29.74
2019-04-05T14:50:02.519Z,29.30
2019-04-05T14:52:33.964Z,29.88
2019-04-05T14:55:05.145Z,29.67
2019-04-05T14:57:36.571Z,29.50
2019-04-05T15:00:08.305Z,29.21
2019-04-05T15:02:39.128Z,29.45
2019-04-05T15:05:09.904Z,29.13
2019-04-05T15:07:40.543Z,28.39
2019-04-05T15:10:11.074Z,28.54
2019-04-05T15:12:41.397Z,28.34
2019-04-05T15:15:13.166Z,28.62
2019-04-05T15:17:48.237Z,28.39
2019-04-05T15:20:17.076Z,28.50
2019-04-05T15:22:47.722Z,28.43
2019-04-05T15:25:21.580Z,28.42
2019-04-05T15:27:55.400Z,28.64
2019-04-05T15:30:26.520Z,28.68
2019-04-05T15:32:58.708Z,28.97
2019-04-05T15:35:30.171Z,28.98
2019-04-05T15:38:02.149Z,29.15
2019-04-05T15:40:32.717Z,29.56
2019-04-05T15:43:03.503Z,30.87
2019-04-05T15:45:34.283Z,30.34
2019-04-05T15:48:04.570Z,30.24
2019-04-05T15:50:35.264Z,30.12
2019-04-05T15:53:05.653Z,30.22
2019-04-05T15:55:36.081Z,30.13
2019-04-05T15:58:06.465Z,30.13
2019-04-05T16:00:46.557Z,30.10
2019-04-05T16:03:17.166Z,29.79
2019-04-05T16:05:47.572Z,29.79
2019-04-05T16:08:19.549Z,29.51
2019-04-05T16:10:50.227Z,30.78
2019-04-05T16:13:20.980Z,30.01
2019-04-05T16:15:51.430Z,29.90
2019-04-05T16:18:21.926Z,30.00
2019-04-05T16:20:52.638Z,30.51
2019-04-05T16:23:22.950Z,30.51
2019-04-05T16:25:53.333Z,30.74
2019-04-05T16:28:24.091Z,30.92
2019-04-05T16:30:54.462Z,30.72
2019-04-05T16:33:24.956Z,31.11
2019-04-05T16:35:55.524Z,31.95
2019-04-05T16:38:26.023Z,31.75
2019-04-05T16:40:56.779Z,32.08
2019-04-05T16:43:27.370Z,32.48
2019-04-05T16:45:57.711Z,33.32
2019-04-05T16:48:28.607Z,32.95
2019-04-05T16:50:58.917Z,33.85
2019-04-05T16:53:29.433Z,34.38
2019-04-05T16:55:59.888Z,34.55
2019-04-05T16:58:30.305Z,34.83
2019-04-05T17:01:00.625Z,35.46
2019-04-05T17:03:32.181Z,35.52
2019-04-05T17:06:02.559Z,35.82
2019-04-05T17:08:32.979Z,36.26
2019-04-05T17:11:03.555Z,36.25
2019-04-05T17:13:34.174Z,36.35
2019-04-05T17:16:04.759Z,36.85
2019-04-05T17:18:35.183Z,37.28
2019-04-05T17:21:05.573Z,37.63
2019-04-05T17:23:36.089Z,38.47
2019-04-05T17:26:06.529Z,40.26
2019-04-05T17:28:37.165Z,40.21
2019-04-05T17:31:07.767Z,41.30
2019-04-05T17:33:38.130Z,40.81
2019-04-05T17:36:08.571Z,41.17
2019-04-05T17:38:39.136Z,40.76
2019-04-05T17:41:09.780Z,41.50
2019-04-05T17:43:40.465Z,41.60
2019-04-05T17:46:11.048Z,41.58
2019-04-05T17:48:41.806Z,42.05
2019-04-05T17:51:12.337Z,42.61
2019-04-05T17:53:42.688Z,42.59
2019-04-05T17:56:14.697Z,42.54
2019-04-05T17:58:45.423Z,43.31
2019-04-05T18:01:15.811Z,43.53
2019-04-05T18:03:46.318Z,43.48
2019-04-05T18:06:16.957Z,43.55
2019-04-05T18:08:47.251Z,43.93
2019-04-05T18:11:18.018Z,44.17
2019-04-05T18:13:48.551Z,44.77
2019-04-05T18:16:18.986Z,45.25
2019-04-05T18:18:49.339Z,45.38
2019-04-05T18:21:19.733Z,46.78
2019-04-05T18:23:50.363Z,47.83
2019-04-05T18:26:21.015Z,46.82
2019-04-05T18:28:52.265Z,46.88
2019-04-05T18:31:23.113Z,47.57
2019-04-05T18:33:53.812Z,48.86
2019-04-05T18:36:24.500Z,49.79
2019-04-05T18:38:54.859Z,50.15
2019-04-05T18:41:25.525Z,50.58
2019-04-05T18:43:55.884Z,50.46
2019-04-05T18:46:26.448Z,50.52
2019-04-05T18:48:57.056Z,50.08
2019-04-05T18:51:27.916Z,49.71
2019-04-05T18:53:58.312Z,49.58
2019-04-05T18:56:28.661Z,49.50
2019-04-05T18:58:59.199Z,50.67
2019-04-05T19:01:29.868Z,50.49
2019-04-05T19:04:00.209Z,50.93
2019-04-05T19:06:30.563Z,51.72
2019-04-05T19:09:01.123Z,51.85
2019-04-05T19:11:33.262Z,52.89
2019-04-05T19:14:03.559Z,53.15
2019-04-05T19:16:34.425Z,52.96
2019-04-05T19:19:05.167Z,53.40
2019-04-05T19:21:35.603Z,53.76
2019-04-05T19:24:06.298Z,53.97
2019-04-05T19:26:36.649Z,53.90
2019-04-05T19:29:07.309Z,53.40
2019-04-05T19:49:23.731Z,55.47
2019-04-05T19:51:54.183Z,55.87
2019-04-05T19:54:26.392Z,55.84
2019-04-05T19:56:56.891Z,55.64
2019-04-05T19:59:27.446Z,56.27
2019-04-05T20:01:57.779Z,57.02
2019-04-05T20:04:29.891Z,57.05
2019-04-05T20:07:00.659Z,56.78
2019-04-05T20:09:31.360Z,55.85
2019-04-05T20:12:03.526Z,55.36
2019-04-05T20:14:34.248Z,54.87
2019-04-05T20:17:04.810Z,55.41
2019-04-05T20:19:35.171Z,55.93
2019-04-05T20:22:05.774Z,55.73
2019-04-05T20:24:36.152Z,56.73
2019-04-05T20:27:06.598Z,56.76
2019-04-05T20:29:36.908Z,56.67
2019-04-05T20:32:08.041Z,56.97
2019-04-05T20:34:38.691Z,57.67
2019-04-05T20:37:09.099Z,57.77
2019-04-05T20:39:39.524Z,58.13
2019-04-05T20:42:10.242Z,58.62
2019-04-05T20:44:40.591Z,58.79
2019-04-05T20:47:11.010Z,59.23
2019-04-05T20:49:41.463Z,58.93
2019-04-05T20:52:11.910Z,58.13
2019-04-05T20:54:42.338Z,58.16
2019-04-05T20:57:15.426Z,58.40
2019-04-05T20:59:45.881Z,58.45
2019-04-05T21:02:16.899Z,57.73
2019-04-05T21:04:48.491Z,58.70
2019-04-05T21:07:18.879Z,59.01
2019-04-05T21:09:49.549Z,59.67
2019-04-05T21:12:19.955Z,59.63
2019-04-05T21:14:50.558Z,59.06
2019-04-05T21:17:21.548Z,59.57
2019-04-05T21:19:52.087Z,59.41
2019-04-05T21:22:22.618Z,58.84
2019-04-05T21:24:53.391Z,58.81
2019-04-05T21:27:24.083Z,59.02
2019-04-05T21:29:54.455Z,58.15
2019-04-05T21:32:25.069Z,57.90
2019-04-05T21:34:56.658Z,57.77
2019-04-05T21:37:26.989Z,58.18
2019-04-05T21:39:57.409Z,59.14
2019-04-05T21:42:27.821Z,59.57
2019-04-05T21:44:58.105Z,59.33
2019-04-05T21:47:28.492Z,58.72
2019-04-05T21:49:59.127Z,59.95
2019-04-05T21:52:29.450Z,60.73
2019-04-05T21:54:59.736Z,60.76
2019-04-05T21:57:31.507Z,60.74
2019-04-05T22:00:02.023Z,60.30
2019-04-05T22:02:34.518Z,60.51
2019-04-05T22:05:05.557Z,60.88
2019-04-05T22:07:35.883Z,61.17
2019-04-05T22:10:07.013Z,61.00
2019-04-05T22:12:37.469Z,60.08
2019-04-05T22:15:07.939Z,60.99
2019-04-05T22:17:38.503Z,60.46
2019-04-05T22:20:09.316Z,61.09
2019-04-05T22:22:39.634Z,61.09
2019-04-05T22:25:10.633Z,60.61
2019-04-05T22:27:41.297Z,61.00
2019-04-05T22:30:11.677Z,60.95
2019-04-05T22:32:42.618Z,59.97
2019-04-05T22:35:13.969Z,59.62
2019-04-05T22:37:44.550Z,59.28
2019-04-05T22:40:15.405Z,58.69
2019-04-05T22:42:45.727Z,57.93
2019-04-05T22:45:16.112Z,58.32
2019-04-05T22:47:46.497Z,58.50
2019-04-05T22:50:16.986Z,59.11
2019-04-05T22:52:47.504Z,59.83
2019-04-05T22:55:18.143Z,60.07
2019-04-05T22:57:48.624Z,59.87
2019-04-05T23:00:19.078Z,59.95
2019-04-05T23:02:53.243Z,59.89
2019-04-05T23:05:24.504Z,59.97
2019-04-05T23:07:55.206Z,59.89
2019-04-05T23:10:25.503Z,61.32
2019-04-05T23:12:56.173Z,60.70
2019-04-05T23:15:27.514Z,61.67
2019-04-05T23:17:57.797Z,61.14
2019-04-05T23:20:28.139Z,60.88
2019-04-05T23:22:58.806Z,60.48
2019-04-05T23:25:29.356Z,60.68
2019-04-05T23:27:59.729Z,60.55
2019-04-05T23:30:31.226Z,60.86
2019-04-05T23:33:01.562Z,61.99
2019-04-05T23:35:31.875Z,63.02
2019-04-05T23:38:02.594Z,64.35
2019-04-05T23:40:34.050Z,64.87
2019-04-05T23:43:04.887Z,65.01
2019-04-05T23:45:35.205Z,64.96
2019-04-05T23:48:05.512Z,65.98
2019-04-05T23:50:36.324Z,66.53
2019-04-05T23:53:06.603Z,66.42
2019-04-05T23:55:36.938Z,66.69
2019-04-05T23:58:07.724Z,67.44
